Blanchester, Ohio
Current Conditions -  °F | °C
As of 2:17 AM on Monday 24 Nov 2014 (Local Time) from KILN Reporting Station
Light Rain Light Rain  
Wind Chill: 57°   Ceiling: 1500
Heat Index: 57°   Visibility: 8mi
Dew Point: 54°   Wind: 23mph
Humidity: 89%   Direction: 220°SW
Pressure: 29.3"   Gusts: 38mph
Location:  39.29°N, 83.99°W
Report Text: KILN 240717Z AUTO 22020G33KT 8SM -RA OVC015 14/12 A2930 RMK AO2 PK WND 23033/0713 P0001 T01390122
Loading
Personal Weather Stations






























Interactive Weather Map New forecast layout! Learn more

10-Day Weather Forecast

Advertisements
Track Severe Weather on mobile